createdAt,value
2022-09-15T00:01:18.418Z,17.27
2022-09-15T00:03:46.357Z,15.90
2022-09-15T00:06:14.451Z,16.48
2022-09-15T00:08:41.661Z,12.77
2022-09-15T00:11:20.460Z,16.15
2022-09-15T00:13:48.740Z,12.98
2022-09-15T00:16:18.271Z,16.45
2022-09-15T00:18:46.892Z,13.88
2022-09-15T00:21:18.164Z,13.85
2022-09-15T00:23:47.113Z,15.52
2022-09-15T00:26:20.098Z,19.55
2022-09-15T00:28:48.395Z,15.90
2022-09-15T00:31:20.648Z,16.08
2022-09-15T00:33:53.872Z,16.98
2022-09-15T00:36:24.055Z,15.45
2022-09-15T00:38:52.296Z,22.23
2022-09-15T00:41:23.396Z,12.73
2022-09-15T00:44:02.477Z,20.15
2022-09-15T00:46:36.923Z,14.68
2022-09-15T00:49:28.924Z,16.23
2022-09-15T00:52:12.330Z,14.25
2022-09-15T00:55:18.367Z,15.57
2022-09-15T00:57:57.271Z,14.37
2022-09-15T01:00:27.481Z,17.13
2022-09-15T01:02:56.447Z,14.65
2022-09-15T01:05:39.329Z,14.63
2022-09-15T01:08:22.299Z,15.57
2022-09-15T01:10:48.890Z,15.23
2022-09-15T01:13:16.527Z,15.80
2022-09-15T01:16:16.811Z,12.70
2022-09-15T01:19:12.854Z,14.32
2022-09-15T01:22:08.514Z,22.00
2022-09-15T01:25:03.293Z,14.65
2022-09-15T01:27:59.065Z,16.05
2022-09-15T01:30:33.605Z,24.97
2022-09-15T01:33:24.854Z,19.30
2022-09-15T01:36:21.657Z,17.35
2022-09-15T01:39:15.756Z,15.63
2022-09-15T01:42:06.346Z,13.73
2022-09-15T01:44:46.365Z,17.42
2022-09-15T01:47:19.849Z,15.63
2022-09-15T01:50:06.272Z,17.88
2022-09-15T01:52:34.433Z,18.17
2022-09-15T01:55:07.571Z,17.02
2022-09-15T01:57:35.590Z,17.92
2022-09-15T02:00:07.043Z,15.98
2022-09-15T02:02:50.762Z,22.10
2022-09-15T02:05:53.313Z,11.07
2022-09-15T02:08:51.473Z,16.65
2022-09-15T02:11:23.822Z,11.45
2022-09-15T02:14:32.184Z,16.65
2022-09-15T02:17:00.200Z,21.75
2022-09-15T02:19:40.891Z,19.15
2022-09-15T02:22:29.540Z,16.40
2022-09-15T02:25:17.994Z,15.00
2022-09-15T02:27:52.757Z,16.50
2022-09-15T02:30:21.747Z,13.32
2022-09-15T02:32:56.727Z,18.48
2022-09-15T02:35:25.922Z,14.53
2022-09-15T02:37:53.283Z,11.98
2022-09-15T02:40:22.529Z,23.95
2022-09-15T02:42:55.800Z,17.60
2022-09-15T02:45:25.403Z,24.55
2022-09-15T02:47:53.747Z,16.83
2022-09-15T02:50:21.761Z,19.83
2022-09-15T02:52:49.760Z,17.73
2022-09-15T02:55:19.551Z,17.48
2022-09-15T02:57:55.749Z,15.35
2022-09-15T03:00:26.104Z,20.00
2022-09-15T03:02:55.001Z,23.20
2022-09-15T03:05:28.673Z,15.63
2022-09-15T03:07:57.132Z,15.27
2022-09-15T03:10:25.043Z,16.23
2022-09-15T03:12:54.597Z,15.68
2022-09-15T03:15:24.366Z,18.92
2022-09-15T03:17:53.068Z,16.40
2022-09-15T03:20:22.809Z,16.17
2022-09-15T03:22:50.077Z,18.35
2022-09-15T03:25:20.736Z,18.17
2022-09-15T03:27:48.654Z,17.70
2022-09-15T03:30:16.698Z,16.98
2022-09-15T03:32:44.525Z,20.52
2022-09-15T03:35:11.200Z,20.33
2022-09-15T03:37:39.392Z,18.90
2022-09-15T03:40:08.205Z,15.65
2022-09-15T03:42:36.006Z,16.35
2022-09-15T03:45:06.857Z,12.90
2022-09-15T03:47:34.475Z,16.23
2022-09-15T03:50:01.127Z,16.20
2022-09-15T03:52:31.203Z,16.63
2022-09-15T03:54:57.820Z,21.10
2022-09-15T03:57:25.489Z,19.70
2022-09-15T03:59:53.386Z,18.52
2022-09-15T04:02:21.234Z,17.23
2022-09-15T04:04:49.103Z,15.60
2022-09-15T04:07:15.741Z,19.38
2022-09-15T04:09:43.539Z,16.65
2022-09-15T04:12:11.166Z,17.67
2022-09-15T04:14:39.411Z,20.30
2022-09-15T04:17:07.403Z,19.63
2022-09-15T04:19:35.007Z,15.18
2022-09-15T04:22:02.829Z,14.68
2022-09-15T04:24:30.820Z,17.83
2022-09-15T04:26:58.491Z,16.23
2022-09-15T04:29:26.129Z,17.45
2022-09-15T04:31:56.751Z,18.27
2022-09-15T04:34:24.772Z,18.58
2022-09-15T04:36:51.426Z,16.35
2022-09-15T04:39:18.043Z,15.85
2022-09-15T04:41:44.698Z,17.33
2022-09-15T04:44:12.698Z,23.23
2022-09-15T04:46:39.337Z,19.80
2022-09-15T04:49:07.574Z,18.58
2022-09-15T04:51:35.333Z,14.90
2022-09-15T04:54:03.379Z,21.60
2022-09-15T04:56:31.131Z,19.77
2022-09-15T04:59:04.133Z,20.25
2022-09-15T05:01:34.605Z,22.05
2022-09-15T05:04:03.841Z,18.27
2022-09-15T05:06:32.659Z,13.57
2022-09-15T05:08:59.553Z,17.80
2022-09-15T05:11:26.807Z,21.25
2022-09-15T05:13:54.862Z,18.63
2022-09-15T05:16:28.642Z,21.45
2022-09-15T05:19:01.196Z,20.27
2022-09-15T05:21:29.483Z,18.48
2022-09-15T05:23:56.649Z,18.75
2022-09-15T05:26:27.441Z,19.10
2022-09-15T05:28:56.189Z,17.77
2022-09-15T05:31:28.012Z,23.42
2022-09-15T05:33:55.896Z,20.25
2022-09-15T05:36:23.851Z,17.08
2022-09-15T05:38:51.135Z,14.13
2022-09-15T05:41:18.919Z,16.35
2022-09-15T05:43:48.184Z,16.98
2022-09-15T05:46:18.116Z,20.60
2022-09-15T05:48:46.551Z,18.33
2022-09-15T05:51:14.188Z,17.10
2022-09-15T05:53:42.238Z,19.25
2022-09-15T05:56:15.200Z,22.95
2022-09-15T05:58:46.284Z,24.42
2022-09-15T06:01:21.626Z,22.38
2022-09-15T06:03:50.073Z,22.20
2022-09-15T06:06:16.905Z,15.82
2022-09-15T06:08:48.345Z,21.10
2022-09-15T06:11:19.309Z,19.10
2022-09-15T06:13:47.845Z,15.35
2022-09-15T06:16:21.758Z,16.38
2022-09-15T06:18:51.441Z,13.65
2022-09-15T06:21:22.386Z,18.83
2022-09-15T06:23:54.694Z,16.40
2022-09-15T06:26:23.404Z,13.38
2022-09-15T06:29:04.976Z,14.00
2022-09-15T06:31:34.057Z,16.42
2022-09-15T06:34:01.141Z,16.60
2022-09-15T06:36:30.767Z,13.60
2022-09-15T06:38:59.254Z,14.95
2022-09-15T06:41:27.551Z,17.63
2022-09-15T06:43:56.011Z,16.20
2022-09-15T06:46:25.605Z,16.63
2022-09-15T06:48:54.843Z,15.10
2022-09-15T06:51:25.333Z,19.85
2022-09-15T06:53:54.012Z,13.18
2022-09-15T06:56:23.590Z,15.15
2022-09-15T06:59:00.186Z,11.18
2022-09-15T07:01:31.450Z,15.00
2022-09-15T07:04:00.630Z,18.58
2022-09-15T07:06:32.452Z,14.80
2022-09-15T07:08:59.410Z,14.43
2022-09-15T07:11:27.302Z,12.55
2022-09-15T07:13:55.489Z,15.10
2022-09-15T07:16:23.981Z,18.83
2022-09-15T07:18:51.024Z,14.65
2022-09-15T07:21:20.456Z,15.27
2022-09-15T07:23:49.536Z,13.85
2022-09-15T07:26:24.973Z,11.85
2022-09-15T07:29:04.619Z,15.50
2022-09-15T07:31:33.557Z,17.52
2022-09-15T07:34:02.628Z,13.18
2022-09-15T07:36:32.779Z,12.82
2022-09-15T07:39:00.537Z,15.85
2022-09-15T07:41:48.256Z,16.13
2022-09-15T07:44:16.161Z,17.05
2022-09-15T07:46:44.324Z,15.90
2022-09-15T07:49:12.019Z,16.25
2022-09-15T07:51:40.969Z,13.73
2022-09-15T07:54:12.017Z,16.88
2022-09-15T07:56:39.004Z,12.48
2022-09-15T07:59:07.197Z,16.42
2022-09-15T08:01:34.064Z,15.40
2022-09-15T08:04:00.721Z,17.17
2022-09-15T08:06:28.914Z,14.30
2022-09-15T08:09:00.794Z,14.85
2022-09-15T08:11:29.670Z,12.90
2022-09-15T08:14:01.014Z,11.13
2022-09-15T08:16:27.684Z,14.38
2022-09-15T08:18:55.616Z,16.35
2022-09-15T08:21:24.103Z,11.38
2022-09-15T08:23:53.792Z,14.40
2022-09-15T08:26:22.739Z,15.27
2022-09-15T08:28:50.605Z,15.52
2022-09-15T08:31:17.854Z,13.45
2022-09-15T08:33:55.505Z,12.35
2022-09-15T08:36:24.140Z,14.23
2022-09-15T08:38:52.170Z,12.32
2022-09-15T08:41:59.988Z,13.38
2022-09-15T08:44:52.408Z,11.23
2022-09-15T08:47:44.958Z,17.85
2022-09-15T08:50:23.443Z,15.30
2022-09-15T08:53:25.699Z,20.45
2022-09-15T08:56:11.139Z,16.98
2022-09-15T08:58:59.647Z,14.70
2022-09-15T09:02:14.986Z,14.73
2022-09-15T09:05:20.275Z,12.45
2022-09-15T09:08:32.177Z,13.52
2022-09-15T09:11:19.530Z,8.77
2022-09-15T09:14:07.443Z,11.48
2022-09-15T09:17:01.173Z,11.45
2022-09-15T09:19:53.683Z,14.57
2022-09-15T09:22:25.965Z,8.95
2022-09-15T09:24:56.470Z,11.52
2022-09-15T09:27:34.302Z,12.93
2022-09-15T09:30:17.869Z,14.23
2022-09-15T09:32:59.961Z,16.73
2022-09-15T09:35:49.508Z,13.20
2022-09-15T09:38:24.130Z,11.68
2022-09-15T09:40:52.800Z,12.82
2022-09-15T09:43:19.652Z,9.57
2022-09-15T09:45:47.564Z,9.07
2022-09-15T09:48:24.758Z,10.93
2022-09-15T09:50:52.610Z,11.63
2022-09-15T09:53:33.222Z,11.30
2022-09-15T09:56:11.847Z,9.13
2022-09-15T09:58:40.144Z,9.77
2022-09-15T10:01:19.628Z,5.40
2022-09-15T10:03:47.554Z,7.82
2022-09-15T10:06:22.006Z,11.27
2022-09-15T10:09:00.718Z,9.57
2022-09-15T10:11:48.318Z,10.57
2022-09-15T10:14:43.025Z,9.35
2022-09-15T10:17:15.407Z,9.60
2022-09-15T10:19:51.088Z,8.52
2022-09-15T10:22:42.859Z,11.07
2022-09-15T10:25:49.674Z,9.15
2022-09-15T10:28:22.905Z,9.77
2022-09-15T10:31:11.327Z,8.23
2022-09-15T10:33:44.324Z,9.00
2022-09-15T10:36:29.967Z,11.05
2022-09-15T10:39:54.214Z,9.95
2022-09-15T10:42:44.934Z,9.18
2022-09-15T10:45:40.071Z,8.75
2022-09-15T10:48:42.513Z,5.88
2022-09-15T10:51:30.894Z,12.45
2022-09-15T10:54:27.787Z,6.70
2022-09-15T10:57:17.671Z,9.60
2022-09-15T11:00:05.013Z,6.70
2022-09-15T11:02:51.526Z,7.80
2022-09-15T11:05:32.599Z,7.10
2022-09-15T11:08:17.167Z,5.28
2022-09-15T11:11:03.795Z,10.50
2022-09-15T11:13:36.784Z,9.57
2022-09-15T11:16:25.410Z,9.18
2022-09-15T11:19:01.581Z,10.77
2022-09-15T11:21:47.163Z,7.20
2022-09-15T11:24:45.520Z,10.55
2022-09-15T11:27:56.139Z,6.72
2022-09-15T11:30:31.279Z,10.75
2022-09-15T11:33:28.860Z,8.57
2022-09-15T11:36:30.106Z,7.70
2022-09-15T11:39:25.844Z,8.07
2022-09-15T11:42:05.662Z,13.17
2022-09-15T11:44:37.981Z,8.63
2022-09-15T11:47:04.605Z,7.47
2022-09-15T11:49:53.662Z,7.07
2022-09-15T11:52:49.406Z,11.68
2022-09-15T11:55:42.057Z,11.83
2022-09-15T11:58:27.550Z,7.75
2022-09-15T12:01:10.680Z,9.73
2022-09-15T12:03:55.788Z,9.23
2022-09-15T12:06:26.759Z,7.93
2022-09-15T12:09:03.950Z,14.23
2022-09-15T12:11:36.301Z,8.75
2022-09-15T12:14:07.628Z,12.13
2022-09-15T12:16:35.035Z,13.45
2022-09-15T12:19:23.814Z,11.30
2022-09-15T12:22:28.527Z,12.10
2022-09-15T12:25:10.276Z,10.63
2022-09-15T12:27:38.284Z,10.43
2022-09-15T12:30:26.781Z,8.80
2022-09-15T12:32:56.814Z,8.07
2022-09-15T12:35:30.590Z,9.27
2022-09-15T12:37:58.893Z,9.35
2022-09-15T12:40:36.219Z,10.18
2022-09-15T12:43:15.199Z,11.88
2022-09-15T12:45:54.338Z,8.23
2022-09-15T12:48:32.175Z,7.28
2022-09-15T12:51:04.066Z,6.78
2022-09-15T12:54:02.576Z,9.68
2022-09-15T12:56:36.761Z,9.10
2022-09-15T12:59:09.004Z,12.00
2022-09-15T13:01:49.479Z,11.63
2022-09-15T13:04:50.902Z,13.50
2022-09-15T13:07:17.465Z,14.15
2022-09-15T13:10:05.990Z,8.88
2022-09-15T13:12:38.604Z,10.35
2022-09-15T13:15:13.314Z,11.45
2022-09-15T13:17:45.983Z,11.82
2022-09-15T13:20:23.311Z,5.05
2022-09-15T13:22:53.966Z,7.85
2022-09-15T13:25:27.047Z,13.50
2022-09-15T13:27:59.161Z,8.60
2022-09-15T13:30:49.146Z,7.90
2022-09-15T13:33:18.793Z,10.40
2022-09-15T13:35:51.306Z,8.20
2022-09-15T13:38:59.909Z,7.63
2022-09-15T13:41:48.134Z,9.75
2022-09-15T13:44:32.822Z,9.13
2022-09-15T13:47:41.769Z,8.23
2022-09-15T13:50:18.198Z,12.73
2022-09-15T13:53:25.475Z,7.00
2022-09-15T13:55:53.866Z,9.50
2022-09-15T14:01:14.225Z,10.57
2022-09-15T14:03:45.910Z,8.88
2022-09-15T14:06:20.631Z,9.18
2022-09-15T14:08:52.410Z,7.25
2022-09-15T14:11:30.285Z,12.15
2022-09-15T14:13:59.014Z,7.90
2022-09-15T14:16:38.487Z,5.80
2022-09-15T14:19:36.875Z,13.90
2022-09-15T14:22:49.004Z,7.63
2022-09-15T14:25:17.771Z,11.45
2022-09-15T14:27:47.230Z,8.85
2022-09-15T14:30:30.820Z,7.07
2022-09-15T14:33:01.411Z,6.43
2022-09-15T14:35:35.372Z,8.55
2022-09-15T14:38:03.816Z,8.27
2022-09-15T14:40:38.246Z,7.70
2022-09-15T14:43:33.584Z,6.47
2022-09-15T14:46:17.277Z,6.35
2022-09-15T14:48:45.199Z,11.30
2022-09-15T14:51:25.607Z,11.30
2022-09-15T14:53:57.254Z,9.25
2022-09-15T14:56:28.846Z,6.68
2022-09-15T14:59:00.731Z,6.45
2022-09-15T15:02:02.549Z,8.25
2022-09-15T15:04:39.993Z,6.93
2022-09-15T15:07:28.851Z,5.63
2022-09-15T15:10:04.597Z,8.20
2022-09-15T15:14:59.706Z,11.05
2022-09-15T15:17:47.919Z,7.65
2022-09-15T15:20:22.377Z,8.45
2022-09-15T15:23:14.496Z,5.00
2022-09-15T15:25:41.805Z,4.53
2022-09-15T15:28:34.429Z,5.65
2022-09-15T15:31:28.840Z,6.28
2022-09-15T15:33:59.013Z,5.28
2022-09-15T15:36:28.796Z,7.10
2022-09-15T15:39:06.478Z,4.55
2022-09-15T15:41:43.196Z,7.85
2022-09-15T15:44:25.548Z,10.02
2022-09-15T15:46:59.050Z,5.85
2022-09-15T15:49:28.789Z,6.25
2022-09-15T15:51:59.134Z,6.57
2022-09-15T15:54:26.215Z,7.95
2022-09-15T15:56:54.645Z,6.88
2022-09-15T15:59:21.408Z,6.35
2022-09-15T16:01:52.035Z,5.60
2022-09-15T16:04:20.030Z,7.05
2022-09-15T16:06:48.003Z,3.95
2022-09-15T16:09:17.650Z,7.82
2022-09-15T16:11:45.611Z,3.47
2022-09-15T16:14:13.104Z,5.13
2022-09-15T16:16:41.058Z,3.05
2022-09-15T16:19:09.103Z,4.72
2022-09-15T16:21:40.082Z,6.35
2022-09-15T16:24:13.611Z,7.25
2022-09-15T16:26:42.612Z,5.85
2022-09-15T16:29:11.074Z,6.07
2022-09-15T16:31:39.328Z,6.82
2022-09-15T16:34:06.133Z,6.93
2022-09-15T16:36:37.062Z,4.05
2022-09-15T16:39:07.452Z,5.05
2022-09-15T16:41:39.287Z,5.00
2022-09-15T16:44:14.493Z,5.10
2022-09-15T16:46:42.357Z,5.05
2022-09-15T16:49:09.258Z,5.20
2022-09-15T16:51:37.637Z,8.18
2022-09-15T16:54:17.181Z,6.80
2022-09-15T16:56:45.280Z,5.82
2022-09-15T16:59:12.569Z,6.20
2022-09-15T17:01:39.298Z,6.88
2022-09-15T17:04:14.654Z,4.47
2022-09-15T17:06:43.090Z,5.68
2022-09-15T17:09:11.188Z,5.53
2022-09-15T17:11:37.942Z,4.53
2022-09-15T17:14:04.734Z,7.05
2022-09-15T17:16:32.349Z,4.32
2022-09-15T17:19:00.484Z,6.95
2022-09-15T17:21:28.403Z,4.93
2022-09-15T17:23:56.303Z,4.47
2022-09-15T17:26:27.616Z,7.47
2022-09-15T17:28:58.675Z,8.32
2022-09-15T17:31:30.118Z,6.00
2022-09-15T17:33:58.034Z,7.10
2022-09-15T17:36:26.094Z,3.92
2022-09-15T17:38:54.288Z,5.00
2022-09-15T17:41:22.093Z,6.30
2022-09-15T17:43:50.979Z,4.05
2022-09-15T17:46:18.851Z,4.75
2022-09-15T17:48:46.090Z,6.50
2022-09-15T17:51:16.589Z,5.85
2022-09-15T17:53:44.714Z,4.35
2022-09-15T17:56:12.382Z,6.10
2022-09-15T17:58:39.039Z,5.72
2022-09-15T18:01:05.817Z,2.50
2022-09-15T18:03:37.245Z,6.32
2022-09-15T18:06:07.919Z,4.45
2022-09-15T18:08:36.501Z,2.85
2022-09-15T18:11:06.133Z,3.00
2022-09-15T18:13:33.976Z,3.45
2022-09-15T18:16:06.864Z,4.45
2022-09-15T18:18:35.462Z,4.00
2022-09-15T18:21:09.167Z,6.07
2022-09-15T18:23:37.475Z,3.03
2022-09-15T18:26:05.523Z,5.22
2022-09-15T18:28:33.461Z,4.10
2022-09-15T18:31:01.324Z,4.00
2022-09-15T18:33:30.501Z,3.58
2022-09-15T18:36:00.868Z,3.55
2022-09-15T18:38:35.666Z,4.75
2022-09-15T18:41:09.926Z,3.80
2022-09-15T18:43:39.391Z,5.30
2022-09-15T18:46:07.718Z,5.63
2022-09-15T18:48:35.764Z,4.80
2022-09-15T18:51:08.197Z,5.82
2022-09-15T18:53:39.098Z,7.68
2022-09-15T18:56:12.310Z,4.53
2022-09-15T18:58:40.522Z,6.65
2022-09-15T19:01:08.818Z,4.30
2022-09-15T19:03:36.766Z,5.55
2022-09-15T19:06:06.714Z,3.28
2022-09-15T19:08:36.367Z,4.13
2022-09-15T19:11:15.257Z,5.70
2022-09-15T19:13:43.103Z,9.27
2022-09-15T19:16:12.832Z,5.10
2022-09-15T19:18:43.130Z,6.05
2022-09-15T19:21:12.839Z,4.30
2022-09-15T19:23:40.746Z,4.45
2022-09-15T19:26:14.036Z,4.68
2022-09-15T19:28:45.164Z,4.75
2022-09-15T19:31:13.169Z,6.00
2022-09-15T19:33:40.941Z,5.60
2022-09-15T19:36:27.532Z,4.53
2022-09-15T19:38:58.653Z,6.20
2022-09-15T19:41:26.869Z,7.93
2022-09-15T19:43:54.729Z,5.97
2022-09-15T19:46:25.097Z,5.43
2022-09-15T19:48:53.748Z,4.93
2022-09-15T19:51:22.101Z,6.43
2022-09-15T19:53:53.290Z,5.03
2022-09-15T19:56:22.792Z,4.80
2022-09-15T19:59:03.451Z,5.55
2022-09-15T20:01:32.132Z,5.28
2022-09-15T20:04:01.699Z,7.50
2022-09-15T20:06:32.314Z,5.40
2022-09-15T20:09:00.929Z,5.00
2022-09-15T20:11:29.686Z,4.30
2022-09-15T20:13:57.964Z,4.05
2022-09-15T20:16:24.888Z,4.85
2022-09-15T20:18:53.238Z,6.28
2022-09-15T20:21:48.780Z,4.03
2022-09-15T20:24:16.887Z,5.40
2022-09-15T20:26:44.952Z,6.78
2022-09-15T20:29:11.759Z,3.85
2022-09-15T20:31:38.397Z,5.97
2022-09-15T20:34:05.014Z,4.05
2022-09-15T20:36:36.354Z,4.57
2022-09-15T20:39:07.355Z,5.93
2022-09-15T20:41:35.151Z,4.65
2022-09-15T20:44:03.178Z,5.15
2022-09-15T20:46:31.419Z,6.10
2022-09-15T20:48:59.613Z,7.43
2022-09-15T20:51:29.543Z,4.70
2022-09-15T20:53:59.171Z,5.65
2022-09-15T20:56:28.707Z,6.25
2022-09-15T20:58:57.554Z,5.82
2022-09-15T21:01:28.660Z,4.68
2022-09-15T21:03:58.631Z,6.40
2022-09-15T21:06:35.697Z,6.20
2022-09-15T21:09:06.502Z,6.47
2022-09-15T21:11:38.342Z,5.32
2022-09-15T21:14:05.308Z,3.75
2022-09-15T21:16:32.204Z,4.68
2022-09-15T21:19:00.057Z,3.47
2022-09-15T21:21:31.015Z,4.80
2022-09-15T21:24:01.112Z,4.93
2022-09-15T21:26:31.757Z,5.88
2022-09-15T21:28:58.723Z,4.45
2022-09-15T21:31:27.872Z,7.03
2022-09-15T21:33:56.551Z,5.65
2022-09-15T21:36:26.544Z,4.82
2022-09-15T21:38:55.830Z,5.68
2022-09-15T21:41:28.847Z,5.88
2022-09-15T21:43:55.842Z,8.50
2022-09-15T21:46:25.843Z,3.47
2022-09-15T21:48:56.201Z,4.57
2022-09-15T21:51:25.319Z,6.43
2022-09-15T21:53:56.725Z,5.53
2022-09-15T21:56:25.831Z,6.22
2022-09-15T21:58:52.469Z,6.82
2022-09-15T22:01:27.154Z,5.85
2022-09-15T22:03:59.999Z,7.25
2022-09-15T22:06:33.413Z,5.95
2022-09-15T22:09:09.811Z,6.63
2022-09-15T22:11:36.768Z,6.03
2022-09-15T22:14:06.083Z,5.68
2022-09-15T22:16:36.364Z,6.15
2022-09-15T22:19:07.316Z,6.10
2022-09-15T22:21:35.266Z,5.57
2022-09-15T22:24:06.072Z,5.95
2022-09-15T22:26:36.879Z,7.30
2022-09-15T22:29:04.378Z,6.53
2022-09-15T22:31:32.049Z,5.93
2022-09-15T22:34:00.081Z,8.63
2022-09-15T22:36:30.400Z,9.00
2022-09-15T22:38:59.886Z,6.05
2022-09-15T22:41:26.522Z,7.03
2022-09-15T22:43:53.127Z,8.48
2022-09-15T22:46:21.171Z,5.03
2022-09-15T22:48:49.431Z,5.50
2022-09-15T22:51:17.440Z,5.07
2022-09-15T22:53:45.294Z,9.00
2022-09-15T22:56:15.725Z,7.25
2022-09-15T22:58:43.893Z,6.20
2022-09-15T23:01:18.205Z,4.55
2022-09-15T23:03:53.691Z,5.60
2022-09-15T23:06:22.460Z,6.47
2022-09-15T23:08:58.181Z,6.45
2022-09-15T23:13:54.248Z,5.68
2022-09-15T23:16:22.976Z,9.52
2022-09-15T23:18:50.861Z,6.13
2022-09-15T23:21:19.550Z,8.65
2022-09-15T23:23:47.971Z,3.85
2022-09-15T23:26:19.210Z,7.20
2022-09-15T23:28:48.653Z,6.70
2022-09-15T23:31:20.170Z,7.30
2022-09-15T23:33:49.528Z,6.13
2022-09-15T23:36:19.935Z,6.45
2022-09-15T23:38:47.755Z,5.15
2022-09-15T23:41:24.186Z,5.82
2022-09-15T23:43:55.007Z,6.20
2022-09-15T23:46:21.690Z,8.27
2022-09-15T23:48:49.695Z,6.28
2022-09-15T23:51:17.532Z,5.93
2022-09-15T23:53:45.396Z,5.70
2022-09-15T23:56:12.008Z,4.75
2022-09-15T23:58:38.624Z,6.65
